Jolly Acres, South Dakota
Current Conditions -  °F | °C
As of 12:52 PM on Saturday 20 Dec 2014 (Local Time) from KRAP Reporting Station
Broken Clouds Broken Clouds  
Wind Chill: 10°   Ceiling: 11000
Heat Index: 10°   Visibility: 10mi
Dew Point: -3°   Wind: 10mph
Humidity: 41%   Direction: 340°NNW
Pressure: 29.88"   Gusts: NA
Location:  44.0731°N, 103.205°W
Report Text: KRAP 201952Z 34009KT 10SM BKN110 10/M03 A2988 RMK AO2 SLP140 T01001028
Loading
Personal Weather Stations






























Interactive Weather Map New forecast layout! Learn more

10-Day Weather Forecast

Advertisements
Track Severe Weather on mobile